Ice Angel — 2BRA3 — position and weather

sailwx.info

Track history (hours):
 
Tides and Currents Weather Stations Pressure Air Temp Water Temp Dewpoint Dewpoint Depression Visibility Wind Speed Wind Dir Waves Ship Positions

Ice Angel

Last reported at 2016-Aug-27 15:30 UTC. Time now 2016-Aug-28 07:00 UTC.
Position N 40°32' E 014°15'.

Length 60 m; draft 3.5 m.

Type: Other ship. MMSI: 235068579.

Date/timePositionNaut miles runAvg speedWind from/ knotsBaromVisibWave heightAir tempDewpointWater temp
2016-Aug-27 15:30N 40°32' E 014°15'101 6.7
2016-Aug-27 00:26N 38°56' E 014°56'1011.0
2016-Aug-26 23:33N 38°47' E 014°59'10 9.5
2016-Aug-26 22:32N 38°38' E 015°03'1 0.1
2016-Aug-26 11:09N 38°37' E 015°04'0 0.0
2016-Aug-26 10:30N 38°37' E 015°04'0 0.0
2016-Aug-26 09:30N 38°37' E 015°04'0 0.0
2016-Aug-26 06:33N 38°37' E 015°04'0 0.0
2016-Aug-26 04:25N 38°37' E 015°04'0 0.0
2016-Aug-26 02:24N 38°37' E 015°04'0 0.0
2016-Aug-26 01:09N 38°37' E 015°04'0 0.0
2016-Aug-26 00:30N 38°37' E 015°04'0 0.0
2016-Aug-25 22:09N 38°37' E 015°04'0 0.0
2016-Aug-25 17:03N 38°37' E 015°04'0 0.0
2016-Aug-25 15:18N 38°37' E 015°04'0 0.0
2016-Aug-25 12:32N 38°37' E 015°04'2 1.6
2016-Aug-25 11:33N 38°37' E 015°06'1313.0
2016-Aug-25 10:33N 38°29' E 015°19'1212.4
2016-Aug-25 09:33N 38°22' E 015°33'9 9.0
2016-Aug-25 08:34N 38°15' E 015°38'1313.3
2016-Aug-25 07:33N 38°02' E 015°31'24 1.7
2016-Aug-24 17:22N 37°44' E 015°13'3 0.1
2016-Aug-23 10:27N 37°41' E 015°14'4 0.2
2016-Aug-22 14:33N 37°44' E 015°13'9 9.4
2016-Aug-22 13:33N 37°45' E 015°25'1312.9
2016-Aug-22 12:31N 37°44' E 015°41'  
2016-Aug-17 18:33N 41°54' E 018°46'1212.5
2016-Aug-17 17:33N 42°06' E 018°43'6 6.5
2016-Aug-17 16:33N 42°13' E 018°43'  
Track history (hours):
 
Tides and Currents Weather Stations Pressure Air Temp Water Temp Dewpoint Dewpoint Depression Visibility Wind Speed Wind Dir Waves Ship Positions

Ice Angel

Last reported at 2016-Aug-27 15:30 UTC. Time now 2016-Aug-28 07:00 UTC.
Position N 40°32' E 014°15'.

Length 60 m; draft 3.5 m.

Type: Other ship. MMSI: 235068579.

Date/timePositionNaut miles runAvg speedWind from/ knotsBaromVisibWave heightAir tempDewpointWater temp
2016-Aug-27 15:30N 40°32' E 014°15'101 6.7
2016-Aug-27 00:26N 38°56' E 014°56'1011.0
2016-Aug-26 23:33N 38°47' E 014°59'10 9.5
2016-Aug-26 22:32N 38°38' E 015°03'1 0.1
2016-Aug-26 11:09N 38°37' E 015°04'0 0.0
2016-Aug-26 10:30N 38°37' E 015°04'0 0.0
2016-Aug-26 09:30N 38°37' E 015°04'0 0.0
2016-Aug-26 06:33N 38°37' E 015°04'0 0.0
2016-Aug-26 04:25N 38°37' E 015°04'0 0.0
2016-Aug-26 02:24N 38°37' E 015°04'0 0.0
2016-Aug-26 01:09N 38°37' E 015°04'0 0.0
2016-Aug-26 00:30N 38°37' E 015°04'0 0.0
2016-Aug-25 22:09N 38°37' E 015°04'0 0.0
2016-Aug-25 17:03N 38°37' E 015°04'0 0.0
2016-Aug-25 15:18N 38°37' E 015°04'0 0.0
2016-Aug-25 12:32N 38°37' E 015°04'2 1.6
2016-Aug-25 11:33N 38°37' E 015°06'1313.0
2016-Aug-25 10:33N 38°29' E 015°19'1212.4
2016-Aug-25 09:33N 38°22' E 015°33'9 9.0
2016-Aug-25 08:34N 38°15' E 015°38'1313.3
2016-Aug-25 07:33N 38°02' E 015°31'24 1.7
2016-Aug-24 17:22N 37°44' E 015°13'3 0.1
2016-Aug-23 10:27N 37°41' E 015°14'4 0.2
2016-Aug-22 14:33N 37°44' E 015°13'9 9.4
2016-Aug-22 13:33N 37°45' E 015°25'1312.9
2016-Aug-22 12:31N 37°44' E 015°41'  
2016-Aug-17 18:33N 41°54' E 018°46'1212.5
2016-Aug-17 17:33N 42°06' E 018°43'6 6.5
2016-Aug-17 16:33N 42°13' E 018°43'  

Dump ship's entire track history